sensor_id;sensor_type;location;lat;lon;timestamp;temperature;humidity
5154;DHT22;2595;53.584;10.084;2023-02-26T00:01:12;1.60;99.90
5154;DHT22;2595;53.584;10.084;2023-02-26T00:03:38;1.60;99.90
5154;DHT22;2595;53.584;10.084;2023-02-26T00:06:05;1.60;99.90
5154;DHT22;2595;53.584;10.084;2023-02-26T00:08:31;1.70;99.90
5154;DHT22;2595;53.584;10.084;2023-02-26T00:10:57;1.60;99.90
5154;DHT22;2595;53.584;10.084;2023-02-26T00:13:23;1.60;99.90
5154;DHT22;2595;53.584;10.084;2023-02-26T00:15:51;1.60;99.90
5154;DHT22;2595;53.584;10.084;2023-02-26T00:18:19;1.60;99.90
5154;DHT22;2595;53.584;10.084;2023-02-26T00:20:45;1.60;99.90
5154;DHT22;2595;53.584;10.084;2023-02-26T00:23:11;1.60;99.90
5154;DHT22;2595;53.584;10.084;2023-02-26T00:25:40;1.60;99.90
5154;DHT22;2595;53.584;10.084;2023-02-26T00:28:07;1.60;99.90
5154;DHT22;2595;53.584;10.084;2023-02-26T00:30:33;1.60;99.90
5154;DHT22;2595;53.584;10.084;2023-02-26T00:33:00;1.60;99.90
5154;DHT22;2595;53.584;10.084;2023-02-26T00:35:26;1.50;99.90
5154;DHT22;2595;53.584;10.084;2023-02-26T00:38:09;1.50;99.90
5154;DHT22;2595;53.584;10.084;2023-02-26T00:40:47;1.50;99.90
5154;DHT22;2595;53.584;10.084;2023-02-26T00:43:22;1.50;99.90
5154;DHT22;2595;53.584;10.084;2023-02-26T00:48:45;1.50;99.90
5154;DHT22;2595;53.584;10.084;2023-02-26T00:54:03;1.40;99.90
5154;DHT22;2595;53.584;10.084;2023-02-26T00:56:31;1.40;99.90
5154;DHT22;2595;53.584;10.084;2023-02-26T00:58:57;1.40;99.90
5154;DHT22;2595;53.584;10.084;2023-02-26T01:01:23;1.40;99.90
5154;DHT22;2595;53.584;10.084;2023-02-26T01:03:48;1.40;99.90
5154;DHT22;2595;53.584;10.084;2023-02-26T01:06:16;1.40;99.90
5154;DHT22;2595;53.584;10.084;2023-02-26T01:09:09;1.40;99.90
5154;DHT22;2595;53.584;10.084;2023-02-26T01:11:37;1.40;99.90
5154;DHT22;2595;53.584;10.084;2023-02-26T01:14:04;1.50;99.90
5154;DHT22;2595;53.584;10.084;2023-02-26T01:16:37;1.40;99.90
5154;DHT22;2595;53.584;10.084;2023-02-26T01:19:19;1.40;99.90
5154;DHT22;2595;53.584;10.084;2023-02-26T01:21:54;1.40;99.90
5154;DHT22;2595;53.584;10.084;2023-02-26T01:24:22;1.40;99.90
5154;DHT22;2595;53.584;10.084;2023-02-26T01:26:49;1.40;99.90
5154;DHT22;2595;53.584;10.084;2023-02-26T01:29:18;1.40;99.90
5154;DHT22;2595;53.584;10.084;2023-02-26T01:34:25;1.40;99.90
5154;DHT22;2595;53.584;10.084;2023-02-26T01:37:04;1.40;99.90
5154;DHT22;2595;53.584;10.084;2023-02-26T01:39:47;1.40;99.90
5154;DHT22;2595;53.584;10.084;2023-02-26T01:42:23;1.40;99.90
5154;DHT22;2595;53.584;10.084;2023-02-26T01:45:00;1.50;99.90
5154;DHT22;2595;53.584;10.084;2023-02-26T01:50:17;1.60;99.90
5154;DHT22;2595;53.584;10.084;2023-02-26T01:53:19;1.60;99.90
5154;DHT22;2595;53.584;10.084;2023-02-26T01:55:49;1.60;99.90
5154;DHT22;2595;53.584;10.084;2023-02-26T01:58:18;1.60;99.90
5154;DHT22;2595;53.584;10.084;2023-02-26T02:00:44;1.60;99.90
5154;DHT22;2595;53.584;10.084;2023-02-26T02:03:13;1.60;99.90
5154;DHT22;2595;53.584;10.084;2023-02-26T02:05:46;1.60;99.90
5154;DHT22;2595;53.584;10.084;2023-02-26T02:08:13;1.60;99.90
5154;DHT22;2595;53.584;10.084;2023-02-26T02:10:45;1.60;99.90
5154;DHT22;2595;53.584;10.084;2023-02-26T02:13:34;1.60;99.90
5154;DHT22;2595;53.584;10.084;2023-02-26T02:22:34;1.40;99.90
5154;DHT22;2595;53.584;10.084;2023-02-26T02:25:31;1.40;99.90
5154;DHT22;2595;53.584;10.084;2023-02-26T02:28:30;1.30;99.90
5154;DHT22;2595;53.584;10.084;2023-02-26T02:31:05;1.30;99.90
5154;DHT22;2595;53.584;10.084;2023-02-26T02:36:30;1.30;99.90
5154;DHT22;2595;53.584;10.084;2023-02-26T02:39:02;1.30;99.90
5154;DHT22;2595;53.584;10.084;2023-02-26T02:41:35;1.30;99.90
5154;DHT22;2595;53.584;10.084;2023-02-26T02:44:06;1.20;99.90
5154;DHT22;2595;53.584;10.084;2023-02-26T02:46:37;1.30;99.90
5154;DHT22;2595;53.584;10.084;2023-02-26T02:49:58;1.30;99.90
5154;DHT22;2595;53.584;10.084;2023-02-26T02:51:59;1.20;99.90
5154;DHT22;2595;53.584;10.084;2023-02-26T02:54:35;1.20;99.90
5154;DHT22;2595;53.584;10.084;2023-02-26T02:57:10;1.20;99.90
5154;DHT22;2595;53.584;10.084;2023-02-26T02:59:43;1.10;99.90
5154;DHT22;2595;53.584;10.084;2023-02-26T03:05:06;1.10;99.90
5154;DHT22;2595;53.584;10.084;2023-02-26T03:07:37;1.10;99.90
5154;DHT22;2595;53.584;10.084;2023-02-26T03:10:05;1.10;99.90
5154;DHT22;2595;53.584;10.084;2023-02-26T03:12:31;1.00;99.90
5154;DHT22;2595;53.584;10.084;2023-02-26T03:14:57;1.00;99.90
5154;DHT22;2595;53.584;10.084;2023-02-26T03:17:27;1.00;99.90
5154;DHT22;2595;53.584;10.084;2023-02-26T03:20:15;1.00;99.90
5154;DHT22;2595;53.584;10.084;2023-02-26T03:31:05;0.90;99.90
5154;DHT22;2595;53.584;10.084;2023-02-26T03:36:32;0.90;99.90
5154;DHT22;2595;53.584;10.084;2023-02-26T03:39:18;0.90;99.90
5154;DHT22;2595;53.584;10.084;2023-02-26T03:44:58;0.90;99.90
5154;DHT22;2595;53.584;10.084;2023-02-26T03:47:26;0.90;99.90
5154;DHT22;2595;53.584;10.084;2023-02-26T03:50:11;0.80;99.90
5154;DHT22;2595;53.584;10.084;2023-02-26T03:52:42;0.80;99.90
5154;DHT22;2595;53.584;10.084;2023-02-26T03:57:37;0.80;99.90
5154;DHT22;2595;53.584;10.084;2023-02-26T04:00:04;0.80;99.90
5154;DHT22;2595;53.584;10.084;2023-02-26T04:02:38;0.80;99.90
5154;DHT22;2595;53.584;10.084;2023-02-26T04:05:13;0.80;99.90
5154;DHT22;2595;53.584;10.084;2023-02-26T04:07:39;0.80;99.90
5154;DHT22;2595;53.584;10.084;2023-02-26T04:10:06;0.80;99.90
5154;DHT22;2595;53.584;10.084;2023-02-26T04:12:33;0.80;99.90
5154;DHT22;2595;53.584;10.084;2023-02-26T04:14:58;0.80;99.90
5154;DHT22;2595;53.584;10.084;2023-02-26T04:17:24;0.80;99.90
5154;DHT22;2595;53.584;10.084;2023-02-26T04:19:50;0.80;99.90
5154;DHT22;2595;53.584;10.084;2023-02-26T04:22:15;0.90;99.90
5154;DHT22;2595;53.584;10.084;2023-02-26T04:24:41;0.90;99.90
5154;DHT22;2595;53.584;10.084;2023-02-26T04:27:06;0.80;99.90
5154;DHT22;2595;53.584;10.084;2023-02-26T04:29:33;0.80;99.90
5154;DHT22;2595;53.584;10.084;2023-02-26T04:31:58;0.80;99.90
5154;DHT22;2595;53.584;10.084;2023-02-26T04:34:25;0.80;99.90
5154;DHT22;2595;53.584;10.084;2023-02-26T04:36:50;0.80;99.90
5154;DHT22;2595;53.584;10.084;2023-02-26T04:39:16;0.70;99.90
5154;DHT22;2595;53.584;10.084;2023-02-26T04:41:42;0.70;99.90
5154;DHT22;2595;53.584;10.084;2023-02-26T04:44:07;0.70;99.90
5154;DHT22;2595;53.584;10.084;2023-02-26T04:46:33;0.60;99.90
5154;DHT22;2595;53.584;10.084;2023-02-26T04:48:58;0.60;99.90
5154;DHT22;2595;53.584;10.084;2023-02-26T04:51:24;0.60;99.90
5154;DHT22;2595;53.584;10.084;2023-02-26T04:53:50;0.60;99.90
5154;DHT22;2595;53.584;10.084;2023-02-26T04:56:16;0.60;99.90
5154;DHT22;2595;53.584;10.084;2023-02-26T04:58:41;0.50;99.90
5154;DHT22;2595;53.584;10.084;2023-02-26T05:01:07;0.50;99.90
5154;DHT22;2595;53.584;10.084;2023-02-26T05:03:33;0.40;99.90
5154;DHT22;2595;53.584;10.084;2023-02-26T05:05:58;0.40;99.90
5154;DHT22;2595;53.584;10.084;2023-02-26T05:08:24;0.50;99.90
5154;DHT22;2595;53.584;10.084;2023-02-26T05:10:50;0.50;99.90
5154;DHT22;2595;53.584;10.084;2023-02-26T05:13:17;0.40;99.90
5154;DHT22;2595;53.584;10.084;2023-02-26T05:15:43;0.40;99.90
5154;DHT22;2595;53.584;10.084;2023-02-26T05:18:08;0.30;99.90
5154;DHT22;2595;53.584;10.084;2023-02-26T05:20:34;0.30;99.90
5154;DHT22;2595;53.584;10.084;2023-02-26T05:23:00;0.30;99.90
5154;DHT22;2595;53.584;10.084;2023-02-26T05:25:25;0.30;99.90
5154;DHT22;2595;53.584;10.084;2023-02-26T05:27:51;0.30;99.90
5154;DHT22;2595;53.584;10.084;2023-02-26T05:30:17;0.30;99.90
5154;DHT22;2595;53.584;10.084;2023-02-26T05:32:43;0.30;99.90
5154;DHT22;2595;53.584;10.084;2023-02-26T05:35:09;0.20;99.90
5154;DHT22;2595;53.584;10.084;2023-02-26T05:37:35;0.20;99.90
5154;DHT22;2595;53.584;10.084;2023-02-26T05:40:01;0.30;99.90
5154;DHT22;2595;53.584;10.084;2023-02-26T05:42:27;0.20;99.90
5154;DHT22;2595;53.584;10.084;2023-02-26T05:44:53;0.20;99.90
5154;DHT22;2595;53.584;10.084;2023-02-26T05:47:18;0.20;99.90
5154;DHT22;2595;53.584;10.084;2023-02-26T05:49:44;0.10;99.90
5154;DHT22;2595;53.584;10.084;2023-02-26T05:52:09;0.10;99.90
5154;DHT22;2595;53.584;10.084;2023-02-26T05:54:35;0.10;99.90
5154;DHT22;2595;53.584;10.084;2023-02-26T05:57:01;0.10;99.90
5154;DHT22;2595;53.584;10.084;2023-02-26T05:59:26;0.10;99.90
5154;DHT22;2595;53.584;10.084;2023-02-26T06:01:52;0.10;99.90
5154;DHT22;2595;53.584;10.084;2023-02-26T06:04:18;0.10;99.90
5154;DHT22;2595;53.584;10.084;2023-02-26T06:06:43;0.10;99.90
5154;DHT22;2595;53.584;10.084;2023-02-26T06:09:09;0.10;99.90
5154;DHT22;2595;53.584;10.084;2023-02-26T06:11:35;0.10;99.90
5154;DHT22;2595;53.584;10.084;2023-02-26T06:14:00;0.10;99.90
5154;DHT22;2595;53.584;10.084;2023-02-26T06:16:26;0.10;99.90
5154;DHT22;2595;53.584;10.084;2023-02-26T06:18:52;0.10;99.90
5154;DHT22;2595;53.584;10.084;2023-02-26T06:21:17;0.10;99.90
5154;DHT22;2595;53.584;10.084;2023-02-26T06:23:43;0.10;99.90
5154;DHT22;2595;53.584;10.084;2023-02-26T06:26:09;0.10;99.90
5154;DHT22;2595;53.584;10.084;2023-02-26T06:28:35;0.10;99.90
5154;DHT22;2595;53.584;10.084;2023-02-26T06:31:01;0.10;99.90
5154;DHT22;2595;53.584;10.084;2023-02-26T06:33:26;0.10;99.90
5154;DHT22;2595;53.584;10.084;2023-02-26T06:35:52;0.10;99.90
5154;DHT22;2595;53.584;10.084;2023-02-26T06:38:18;0.10;99.90
5154;DHT22;2595;53.584;10.084;2023-02-26T06:40:45;0.00;99.90
5154;DHT22;2595;53.584;10.084;2023-02-26T06:43:11;0.00;99.90
5154;DHT22;2595;53.584;10.084;2023-02-26T06:45:37;0.00;99.90
5154;DHT22;2595;53.584;10.084;2023-02-26T06:48:03;0.10;99.90
5154;DHT22;2595;53.584;10.084;2023-02-26T06:50:28;0.10;99.90
5154;DHT22;2595;53.584;10.084;2023-02-26T06:52:54;0.10;99.90
5154;DHT22;2595;53.584;10.084;2023-02-26T06:55:20;0.10;99.90
5154;DHT22;2595;53.584;10.084;2023-02-26T06:57:53;0.10;99.90
5154;DHT22;2595;53.584;10.084;2023-02-26T07:00:19;0.20;99.90
5154;DHT22;2595;53.584;10.084;2023-02-26T07:02:45;0.20;99.90
5154;DHT22;2595;53.584;10.084;2023-02-26T07:05:10;0.20;99.90
5154;DHT22;2595;53.584;10.084;2023-02-26T07:07:36;0.20;99.90
5154;DHT22;2595;53.584;10.084;2023-02-26T07:10:02;0.20;99.90
5154;DHT22;2595;53.584;10.084;2023-02-26T07:12:27;0.20;99.90
5154;DHT22;2595;53.584;10.084;2023-02-26T07:14:53;0.20;99.90
5154;DHT22;2595;53.584;10.084;2023-02-26T07:17:18;0.20;99.90
5154;DHT22;2595;53.584;10.084;2023-02-26T07:19:48;0.20;99.90
5154;DHT22;2595;53.584;10.084;2023-02-26T07:22:14;0.30;99.90
5154;DHT22;2595;53.584;10.084;2023-02-26T07:24:40;0.40;99.90
5154;DHT22;2595;53.584;10.084;2023-02-26T07:27:07;0.40;99.90
5154;DHT22;2595;53.584;10.084;2023-02-26T07:29:32;0.50;99.90
5154;DHT22;2595;53.584;10.084;2023-02-26T07:31:58;0.50;99.90
5154;DHT22;2595;53.584;10.084;2023-02-26T07:34:23;0.50;99.90
5154;DHT22;2595;53.584;10.084;2023-02-26T07:36:49;0.60;99.90
5154;DHT22;2595;53.584;10.084;2023-02-26T07:39:15;0.60;99.90
5154;DHT22;2595;53.584;10.084;2023-02-26T07:41:40;0.70;99.90
5154;DHT22;2595;53.584;10.084;2023-02-26T07:44:06;0.70;99.90
5154;DHT22;2595;53.584;10.084;2023-02-26T07:46:31;0.80;99.90
5154;DHT22;2595;53.584;10.084;2023-02-26T07:48:57;0.70;99.90
5154;DHT22;2595;53.584;10.084;2023-02-26T07:51:23;0.80;99.90
5154;DHT22;2595;53.584;10.084;2023-02-26T07:53:48;0.90;99.90
5154;DHT22;2595;53.584;10.084;2023-02-26T07:56:14;0.80;99.90
5154;DHT22;2595;53.584;10.084;2023-02-26T07:58:39;0.90;99.90
5154;DHT22;2595;53.584;10.084;2023-02-26T08:01:05;0.90;99.90
5154;DHT22;2595;53.584;10.084;2023-02-26T08:03:31;0.90;99.90
5154;DHT22;2595;53.584;10.084;2023-02-26T08:05:57;0.90;99.90
5154;DHT22;2595;53.584;10.084;2023-02-26T08:08:25;1.00;99.90
5154;DHT22;2595;53.584;10.084;2023-02-26T08:10:51;1.00;99.90
5154;DHT22;2595;53.584;10.084;2023-02-26T08:13:16;0.90;99.90
5154;DHT22;2595;53.584;10.084;2023-02-26T08:15:42;1.00;99.90
5154;DHT22;2595;53.584;10.084;2023-02-26T08:18:09;1.00;99.90
5154;DHT22;2595;53.584;10.084;2023-02-26T08:20:34;1.00;99.90
5154;DHT22;2595;53.584;10.084;2023-02-26T08:23:00;1.00;99.90
5154;DHT22;2595;53.584;10.084;2023-02-26T08:25:26;1.00;99.90
5154;DHT22;2595;53.584;10.084;2023-02-26T08:27:51;1.10;99.90
5154;DHT22;2595;53.584;10.084;2023-02-26T08:30:17;1.10;99.90
5154;DHT22;2595;53.584;10.084;2023-02-26T08:32:43;1.10;99.90
5154;DHT22;2595;53.584;10.084;2023-02-26T08:35:10;1.20;99.90
5154;DHT22;2595;53.584;10.084;2023-02-26T08:37:36;1.20;99.90
5154;DHT22;2595;53.584;10.084;2023-02-26T08:40:04;1.20;99.90
5154;DHT22;2595;53.584;10.084;2023-02-26T08:42:30;1.30;99.90
5154;DHT22;2595;53.584;10.084;2023-02-26T08:44:55;1.30;99.90
5154;DHT22;2595;53.584;10.084;2023-02-26T08:47:21;1.40;99.90
5154;DHT22;2595;53.584;10.084;2023-02-26T08:49:46;1.40;99.90
5154;DHT22;2595;53.584;10.084;2023-02-26T08:52:12;1.50;99.90
5154;DHT22;2595;53.584;10.084;2023-02-26T08:54:38;1.50;99.90
5154;DHT22;2595;53.584;10.084;2023-02-26T08:57:03;1.50;99.90
5154;DHT22;2595;53.584;10.084;2023-02-26T08:59:29;1.60;99.90
5154;DHT22;2595;53.584;10.084;2023-02-26T09:01:54;1.70;99.90
5154;DHT22;2595;53.584;10.084;2023-02-26T09:04:20;1.70;99.90
5154;DHT22;2595;53.584;10.084;2023-02-26T09:06:45;1.80;99.90
5154;DHT22;2595;53.584;10.084;2023-02-26T09:09:11;1.80;99.90
5154;DHT22;2595;53.584;10.084;2023-02-26T09:11:37;1.80;99.90
5154;DHT22;2595;53.584;10.084;2023-02-26T09:14:03;1.90;99.90
5154;DHT22;2595;53.584;10.084;2023-02-26T09:16:30;1.90;99.90
5154;DHT22;2595;53.584;10.084;2023-02-26T09:18:56;2.00;99.90
5154;DHT22;2595;53.584;10.084;2023-02-26T09:21:22;2.00;99.90
5154;DHT22;2595;53.584;10.084;2023-02-26T09:23:48;2.10;99.90
5154;DHT22;2595;53.584;10.084;2023-02-26T09:26:14;2.20;99.90
5154;DHT22;2595;53.584;10.084;2023-02-26T09:28:39;2.30;99.90
5154;DHT22;2595;53.584;10.084;2023-02-26T09:31:05;2.40;99.90
5154;DHT22;2595;53.584;10.084;2023-02-26T09:33:34;2.40;99.90
5154;DHT22;2595;53.584;10.084;2023-02-26T09:36:00;2.40;99.90
5154;DHT22;2595;53.584;10.084;2023-02-26T09:38:26;2.50;99.90
5154;DHT22;2595;53.584;10.084;2023-02-26T09:40:59;2.50;99.90
5154;DHT22;2595;53.584;10.084;2023-02-26T09:46:37;2.70;99.90
5154;DHT22;2595;53.584;10.084;2023-02-26T09:49:27;2.70;99.90
5154;DHT22;2595;53.584;10.084;2023-02-26T09:55:34;2.90;99.90
5154;DHT22;2595;53.584;10.084;2023-02-26T09:58:15;3.00;99.90
5154;DHT22;2595;53.584;10.084;2023-02-26T10:06:31;3.20;99.90
5154;DHT22;2595;53.584;10.084;2023-02-26T10:11:56;3.30;99.90
5154;DHT22;2595;53.584;10.084;2023-02-26T10:14:29;3.40;99.90
5154;DHT22;2595;53.584;10.084;2023-02-26T10:17:02;3.40;99.90
5154;DHT22;2595;53.584;10.084;2023-02-26T10:19:34;3.50;99.90
5154;DHT22;2595;53.584;10.084;2023-02-26T10:24:53;3.60;99.90
5154;DHT22;2595;53.584;10.084;2023-02-26T10:27:36;3.70;99.90
5154;DHT22;2595;53.584;10.084;2023-02-26T10:30:15;3.90;99.90
5154;DHT22;2595;53.584;10.084;2023-02-26T10:33:13;4.30;99.90
5154;DHT22;2595;53.584;10.084;2023-02-26T10:35:52;5.10;99.90
5154;DHT22;2595;53.584;10.084;2023-02-26T10:38:25;6.00;99.90
5154;DHT22;2595;53.584;10.084;2023-02-26T10:40:58;6.60;99.90
5154;DHT22;2595;53.584;10.084;2023-02-26T10:43:41;7.10;99.90
5154;DHT22;2595;53.584;10.084;2023-02-26T10:49:38;7.70;99.50
5154;DHT22;2595;53.584;10.084;2023-02-26T10:52:16;7.70;99.90
5154;DHT22;2595;53.584;10.084;2023-02-26T10:55:12;7.70;99.90
5154;DHT22;2595;53.584;10.084;2023-02-26T10:57:43;7.30;99.90
5154;DHT22;2595;53.584;10.084;2023-02-26T11:00:18;6.90;99.90
5154;DHT22;2595;53.584;10.084;2023-02-26T11:02:49;6.60;99.90
5154;DHT22;2595;53.584;10.084;2023-02-26T11:05:25;6.30;99.90
5154;DHT22;2595;53.584;10.084;2023-02-26T11:08:19;6.30;99.90
5154;DHT22;2595;53.584;10.084;2023-02-26T11:10:58;6.20;99.90
5154;DHT22;2595;53.584;10.084;2023-02-26T11:13:26;6.00;99.90
5154;DHT22;2595;53.584;10.084;2023-02-26T11:15:55;5.80;99.90
5154;DHT22;2595;53.584;10.084;2023-02-26T11:18:26;5.60;99.90
5154;DHT22;2595;53.584;10.084;2023-02-26T11:20:56;5.50;99.90
5154;DHT22;2595;53.584;10.084;2023-02-26T11:23:25;5.40;99.90
5154;DHT22;2595;53.584;10.084;2023-02-26T11:25:56;5.30;99.90
5154;DHT22;2595;53.584;10.084;2023-02-26T11:28:30;5.10;99.90
5154;DHT22;2595;53.584;10.084;2023-02-26T11:31:00;5.00;99.90
5154;DHT22;2595;53.584;10.084;2023-02-26T11:33:32;4.90;99.90
5154;DHT22;2595;53.584;10.084;2023-02-26T11:36:00;4.80;99.90
5154;DHT22;2595;53.584;10.084;2023-02-26T11:38:27;4.90;99.90
5154;DHT22;2595;53.584;10.084;2023-02-26T11:40:56;5.00;99.90
5154;DHT22;2595;53.584;10.084;2023-02-26T11:43:24;5.10;99.90
5154;DHT22;2595;53.584;10.084;2023-02-26T11:45:58;5.00;99.90
5154;DHT22;2595;53.584;10.084;2023-02-26T11:48:26;5.00;99.90
5154;DHT22;2595;53.584;10.084;2023-02-26T11:50:59;4.90;99.90
5154;DHT22;2595;53.584;10.084;2023-02-26T11:53:36;4.90;99.90
5154;DHT22;2595;53.584;10.084;2023-02-26T11:56:19;4.90;99.90
5154;DHT22;2595;53.584;10.084;2023-02-26T11:58:51;4.90;99.90
5154;DHT22;2595;53.584;10.084;2023-02-26T12:01:17;4.80;99.90
5154;DHT22;2595;53.584;10.084;2023-02-26T12:03:46;4.80;99.90
5154;DHT22;2595;53.584;10.084;2023-02-26T12:06:22;4.70;99.90
5154;DHT22;2595;53.584;10.084;2023-02-26T12:08:49;4.60;99.90
5154;DHT22;2595;53.584;10.084;2023-02-26T12:25:34;4.90;99.90
5154;DHT22;2595;53.584;10.084;2023-02-26T12:31:33;5.20;99.90
5154;DHT22;2595;53.584;10.084;2023-02-26T12:34:26;5.40;99.90
5154;DHT22;2595;53.584;10.084;2023-02-26T12:47:57;6.10;99.90
5154;DHT22;2595;53.584;10.084;2023-02-26T12:56:47;6.00;99.90
5154;DHT22;2595;53.584;10.084;2023-02-26T13:00:22;5.90;99.90
5154;DHT22;2595;53.584;10.084;2023-02-26T13:02:40;5.90;99.90
5154;DHT22;2595;53.584;10.084;2023-02-26T13:05:29;5.80;99.90
5154;DHT22;2595;53.584;10.084;2023-02-26T13:08:18;5.80;99.90
5154;DHT22;2595;53.584;10.084;2023-02-26T13:14:01;5.70;99.90
5154;DHT22;2595;53.584;10.084;2023-02-26T13:16:41;5.60;99.90
5154;DHT22;2595;53.584;10.084;2023-02-26T13:19:46;5.50;99.90
5154;DHT22;2595;53.584;10.084;2023-02-26T13:27:17;5.80;99.90
5154;DHT22;2595;53.584;10.084;2023-02-26T13:29:51;5.90;99.90
5154;DHT22;2595;53.584;10.084;2023-02-26T13:32:23;5.90;99.90
5154;DHT22;2595;53.584;10.084;2023-02-26T13:35:00;5.90;99.90
5154;DHT22;2595;53.584;10.084;2023-02-26T13:37:31;5.90;99.90
5154;DHT22;2595;53.584;10.084;2023-02-26T13:40:22;5.80;99.90
5154;DHT22;2595;53.584;10.084;2023-02-26T13:43:17;5.80;99.90
5154;DHT22;2595;53.584;10.084;2023-02-26T13:51:33;5.50;99.90
5154;DHT22;2595;53.584;10.084;2023-02-26T14:06:53;5.40;99.90
5154;DHT22;2595;53.584;10.084;2023-02-26T14:19:42;5.90;99.90
5154;DHT22;2595;53.584;10.084;2023-02-26T14:24:57;5.90;99.90
5154;DHT22;2595;53.584;10.084;2023-02-26T14:27:45;6.00;99.90
5154;DHT22;2595;53.584;10.084;2023-02-26T14:30:31;6.00;99.90
5154;DHT22;2595;53.584;10.084;2023-02-26T14:35:42;5.90;99.90
5154;DHT22;2595;53.584;10.084;2023-02-26T14:38:17;5.90;99.90
5154;DHT22;2595;53.584;10.084;2023-02-26T14:41:02;5.90;99.90
5154;DHT22;2595;53.584;10.084;2023-02-26T14:43:36;5.90;99.90
5154;DHT22;2595;53.584;10.084;2023-02-26T14:46:03;5.80;99.90
5154;DHT22;2595;53.584;10.084;2023-02-26T14:48:30;5.80;99.90
5154;DHT22;2595;53.584;10.084;2023-02-26T14:53:49;5.90;99.90
5154;DHT22;2595;53.584;10.084;2023-02-26T15:02:26;5.80;99.90
5154;DHT22;2595;53.584;10.084;2023-02-26T15:22:14;5.50;99.90
5154;DHT22;2595;53.584;10.084;2023-02-26T15:24:42;5.40;99.90
5154;DHT22;2595;53.584;10.084;2023-02-26T15:27:12;5.40;99.90
5154;DHT22;2595;53.584;10.084;2023-02-26T15:29:40;5.30;99.90
5154;DHT22;2595;53.584;10.084;2023-02-26T15:32:27;5.30;99.90
5154;DHT22;2595;53.584;10.084;2023-02-26T15:37:55;5.20;99.90
5154;DHT22;2595;53.584;10.084;2023-02-26T15:40:22;5.10;99.90
5154;DHT22;2595;53.584;10.084;2023-02-26T15:42:52;5.10;99.90
5154;DHT22;2595;53.584;10.084;2023-02-26T15:47:54;5.10;99.90
5154;DHT22;2595;53.584;10.084;2023-02-26T15:50:26;5.10;99.90
5154;DHT22;2595;53.584;10.084;2023-02-26T15:52:55;5.10;99.90
5154;DHT22;2595;53.584;10.084;2023-02-26T15:55:21;5.10;99.90
5154;DHT22;2595;53.584;10.084;2023-02-26T15:57:47;5.10;99.90
5154;DHT22;2595;53.584;10.084;2023-02-26T16:00:19;5.10;99.90
5154;DHT22;2595;53.584;10.084;2023-02-26T16:02:51;5.10;99.90
5154;DHT22;2595;53.584;10.084;2023-02-26T16:05:18;5.00;99.90
5154;DHT22;2595;53.584;10.084;2023-02-26T16:07:44;5.00;99.90
5154;DHT22;2595;53.584;10.084;2023-02-26T16:10:32;4.90;99.90
5154;DHT22;2595;53.584;10.084;2023-02-26T16:12:59;4.90;99.90
5154;DHT22;2595;53.584;10.084;2023-02-26T16:15:32;4.90;99.90
5154;DHT22;2595;53.584;10.084;2023-02-26T16:18:00;4.80;99.90
5154;DHT22;2595;53.584;10.084;2023-02-26T16:20:31;4.80;99.90
5154;DHT22;2595;53.584;10.084;2023-02-26T16:23:04;4.80;99.90
5154;DHT22;2595;53.584;10.084;2023-02-26T16:25:52;4.80;99.90
5154;DHT22;2595;53.584;10.084;2023-02-26T16:28:26;4.70;99.90
5154;DHT22;2595;53.584;10.084;2023-02-26T16:30:54;4.70;99.90
5154;DHT22;2595;53.584;10.084;2023-02-26T16:33:22;4.70;99.90
5154;DHT22;2595;53.584;10.084;2023-02-26T16:39:14;4.70;99.90
5154;DHT22;2595;53.584;10.084;2023-02-26T16:41:47;4.60;99.90
5154;DHT22;2595;53.584;10.084;2023-02-26T16:44:37;4.60;99.90
5154;DHT22;2595;53.584;10.084;2023-02-26T16:47:04;4.50;99.90
5154;DHT22;2595;53.584;10.084;2023-02-26T16:49:32;4.50;99.90
5154;DHT22;2595;53.584;10.084;2023-02-26T16:51:59;4.50;99.90
5154;DHT22;2595;53.584;10.084;2023-02-26T16:54:37;4.50;99.90
5154;DHT22;2595;53.584;10.084;2023-02-26T16:57:10;4.50;99.90
5154;DHT22;2595;53.584;10.084;2023-02-26T16:59:39;4.50;99.90
5154;DHT22;2595;53.584;10.084;2023-02-26T17:02:22;4.50;99.90
5154;DHT22;2595;53.584;10.084;2023-02-26T17:04:57;4.50;99.90
5154;DHT22;2595;53.584;10.084;2023-02-26T17:07:31;4.50;99.90
5154;DHT22;2595;53.584;10.084;2023-02-26T17:09:59;4.50;99.90
5154;DHT22;2595;53.584;10.084;2023-02-26T17:12:45;4.50;99.90
5154;DHT22;2595;53.584;10.084;2023-02-26T17:15:33;4.40;99.90
5154;DHT22;2595;53.584;10.084;2023-02-26T17:18:00;4.40;99.90
5154;DHT22;2595;53.584;10.084;2023-02-26T17:20:27;4.40;99.90
5154;DHT22;2595;53.584;10.084;2023-02-26T17:22:54;4.40;99.90
5154;DHT22;2595;53.584;10.084;2023-02-26T17:25:21;4.30;99.90
5154;DHT22;2595;53.584;10.084;2023-02-26T17:27:49;4.30;99.90
5154;DHT22;2595;53.584;10.084;2023-02-26T17:30:18;4.30;99.90
5154;DHT22;2595;53.584;10.084;2023-02-26T17:32:44;4.30;99.90
5154;DHT22;2595;53.584;10.084;2023-02-26T17:35:15;4.20;99.90
5154;DHT22;2595;53.584;10.084;2023-02-26T17:37:41;4.20;99.90
5154;DHT22;2595;53.584;10.084;2023-02-26T17:40:28;4.20;99.90
5154;DHT22;2595;53.584;10.084;2023-02-26T17:42:56;4.20;99.90
5154;DHT22;2595;53.584;10.084;2023-02-26T17:45:21;4.20;99.90
5154;DHT22;2595;53.584;10.084;2023-02-26T17:47:50;4.20;99.90
5154;DHT22;2595;53.584;10.084;2023-02-26T17:50:46;4.20;99.90
5154;DHT22;2595;53.584;10.084;2023-02-26T17:53:16;4.20;99.90
5154;DHT22;2595;53.584;10.084;2023-02-26T17:55:42;4.20;99.90
5154;DHT22;2595;53.584;10.084;2023-02-26T17:58:15;4.20;99.90
5154;DHT22;2595;53.584;10.084;2023-02-26T18:00:42;4.10;99.90
5154;DHT22;2595;53.584;10.084;2023-02-26T18:03:09;4.10;99.90
5154;DHT22;2595;53.584;10.084;2023-02-26T18:05:36;4.10;99.90
5154;DHT22;2595;53.584;10.084;2023-02-26T18:08:05;4.00;99.90
5154;DHT22;2595;53.584;10.084;2023-02-26T18:10:31;4.00;99.90
5154;DHT22;2595;53.584;10.084;2023-02-26T18:12:57;3.90;99.90
5154;DHT22;2595;53.584;10.084;2023-02-26T18:15:25;3.90;99.90
5154;DHT22;2595;53.584;10.084;2023-02-26T18:17:51;3.80;99.90
5154;DHT22;2595;53.584;10.084;2023-02-26T18:20:21;3.80;99.90
5154;DHT22;2595;53.584;10.084;2023-02-26T18:22:48;3.80;99.90
5154;DHT22;2595;53.584;10.084;2023-02-26T18:25:15;3.80;99.90
5154;DHT22;2595;53.584;10.084;2023-02-26T18:27:41;3.70;99.90
5154;DHT22;2595;53.584;10.084;2023-02-26T18:30:19;3.70;99.90
5154;DHT22;2595;53.584;10.084;2023-02-26T18:32:46;3.60;99.90
5154;DHT22;2595;53.584;10.084;2023-02-26T18:35:11;3.60;99.90
5154;DHT22;2595;53.584;10.084;2023-02-26T18:37:37;3.50;99.90
5154;DHT22;2595;53.584;10.084;2023-02-26T18:40:03;3.50;99.90
5154;DHT22;2595;53.584;10.084;2023-02-26T18:42:29;3.50;99.90
5154;DHT22;2595;53.584;10.084;2023-02-26T18:44:57;3.50;99.90
5154;DHT22;2595;53.584;10.084;2023-02-26T18:47:22;3.50;99.90
5154;DHT22;2595;53.584;10.084;2023-02-26T18:49:49;3.50;99.90
5154;DHT22;2595;53.584;10.084;2023-02-26T18:52:15;3.40;99.90
5154;DHT22;2595;53.584;10.084;2023-02-26T18:54:41;3.50;99.90
5154;DHT22;2595;53.584;10.084;2023-02-26T18:57:08;3.30;99.90
5154;DHT22;2595;53.584;10.084;2023-02-26T18:59:33;3.30;99.90
5154;DHT22;2595;53.584;10.084;2023-02-26T19:02:00;3.30;99.90
5154;DHT22;2595;53.584;10.084;2023-02-26T19:04:26;3.30;99.90
5154;DHT22;2595;53.584;10.084;2023-02-26T19:06:52;3.30;99.90
5154;DHT22;2595;53.584;10.084;2023-02-26T19:09:17;3.30;99.90
5154;DHT22;2595;53.584;10.084;2023-02-26T19:11:43;3.20;99.90
5154;DHT22;2595;53.584;10.084;2023-02-26T19:14:09;3.20;99.90
5154;DHT22;2595;53.584;10.084;2023-02-26T19:16:35;3.10;99.90